createdAt,value
2018-12-30T00:01:29.959Z,26.53
2018-12-30T00:03:58.915Z,16.50
2018-12-30T00:06:28.420Z,15.00
2018-12-30T00:08:57.713Z,18.80
2018-12-30T00:11:26.542Z,24.40
2018-12-30T00:13:55.384Z,21.47
2018-12-30T00:16:24.298Z,18.83
2018-12-30T00:18:53.189Z,12.10
2018-12-30T00:21:22.102Z,20.33
2018-12-30T00:23:50.943Z,16.53
2018-12-30T00:26:19.918Z,19.13
2018-12-30T00:28:48.875Z,23.17
2018-12-30T00:31:18.263Z,15.37
2018-12-30T00:33:47.347Z,15.37
2018-12-30T00:36:16.177Z,19.80
2018-12-30T00:38:45.133Z,19.67
2018-12-30T00:41:14.008Z,14.03
2018-12-30T00:43:42.890Z,26.37
2018-12-30T00:46:11.728Z,10.50
2018-12-30T00:48:40.629Z,28.03
2018-12-30T00:51:16.833Z,17.50
2018-12-30T00:53:40.065Z,21.60
2018-12-30T00:56:09.011Z,16.87
2018-12-30T00:58:37.976Z,17.80
2018-12-30T01:01:06.921Z,16.80
2018-12-30T01:03:35.825Z,15.53
2018-12-30T01:06:04.925Z,23.13
2018-12-30T01:08:33.745Z,21.50
2018-12-30T01:11:02.586Z,15.07
2018-12-30T01:13:31.454Z,16.47
2018-12-30T01:16:00.320Z,24.57
2018-12-30T01:18:29.127Z,17.80
2018-12-30T01:20:57.930Z,9.30
2018-12-30T01:23:26.901Z,21.60
2018-12-30T01:25:56.123Z,14.40
2018-12-30T01:28:25.051Z,18.30
2018-12-30T01:30:53.941Z,15.63
2018-12-30T01:33:22.778Z,15.33
2018-12-30T01:35:51.620Z,22.10
2018-12-30T01:38:21.030Z,16.67
2018-12-30T01:40:49.947Z,24.10
2018-12-30T01:43:18.826Z,13.23
2018-12-30T01:45:47.919Z,15.37
2018-12-30T01:48:16.752Z,20.83
2018-12-30T01:50:45.597Z,12.37
2018-12-30T01:53:14.560Z,14.20
2018-12-30T01:55:43.472Z,10.80
2018-12-30T01:58:12.488Z,18.53
2018-12-30T02:00:41.480Z,10.20
2018-12-30T02:03:10.526Z,15.67
2018-12-30T02:05:39.421Z,17.50
2018-12-30T02:08:08.367Z,9.67
2018-12-30T02:10:37.281Z,16.00
2018-12-30T02:13:06.177Z,11.90
2018-12-30T02:15:35.091Z,9.63
2018-12-30T02:18:03.998Z,9.83
2018-12-30T02:20:32.818Z,7.07
2018-12-30T02:23:01.771Z,7.70
2018-12-30T02:25:30.666Z,8.70
2018-12-30T02:27:59.510Z,10.50
2018-12-30T02:30:28.898Z,12.70
2018-12-30T02:32:57.750Z,10.80
2018-12-30T02:35:26.564Z,10.80
2018-12-30T02:37:55.412Z,11.73
2018-12-30T02:40:24.246Z,4.93
2018-12-30T02:42:53.161Z,7.40
2018-12-30T02:45:22.086Z,10.03
2018-12-30T02:47:51.012Z,11.63
2018-12-30T02:50:19.884Z,8.33
2018-12-30T02:52:48.727Z,5.50
2018-12-30T02:55:17.687Z,5.80
2018-12-30T02:57:46.552Z,9.67
2018-12-30T03:00:15.464Z,15.80
2018-12-30T03:02:44.360Z,10.87
2018-12-30T03:05:13.186Z,8.77
2018-12-30T03:07:42.039Z,6.00
2018-12-30T03:10:10.971Z,10.20
2018-12-30T03:12:39.874Z,9.20
2018-12-30T03:15:08.758Z,7.40
2018-12-30T03:17:37.670Z,7.30
2018-12-30T03:20:06.581Z,8.73
2018-12-30T03:22:35.408Z,14.73
2018-12-30T03:25:04.250Z,13.13
2018-12-30T03:27:33.153Z,10.10
2018-12-30T03:30:01.977Z,14.47
2018-12-30T03:32:30.833Z,10.83
2018-12-30T03:34:59.716Z,10.20
2018-12-30T03:37:28.554Z,9.93
2018-12-30T03:39:57.502Z,5.63
2018-12-30T03:42:26.384Z,6.33
2018-12-30T03:44:55.230Z,11.73
2018-12-30T03:47:24.143Z,6.63
2018-12-30T03:49:53.635Z,12.00
2018-12-30T03:52:22.551Z,12.80
2018-12-30T03:54:51.452Z,16.23
2018-12-30T03:57:20.320Z,9.97
2018-12-30T03:59:49.154Z,8.87
2018-12-30T04:02:17.966Z,9.50
2018-12-30T04:04:47.043Z,8.00
2018-12-30T04:07:15.866Z,11.13
2018-12-30T04:09:44.699Z,9.97
2018-12-30T04:12:13.658Z,7.13
2018-12-30T04:14:42.665Z,13.27
2018-12-30T04:17:11.499Z,7.50
2018-12-30T04:19:40.323Z,19.43
2018-12-30T04:22:16.672Z,3.93
2018-12-30T04:24:39.726Z,11.50
2018-12-30T04:27:08.570Z,11.93
2018-12-30T04:29:37.377Z,6.20
2018-12-30T04:32:06.225Z,6.70
2018-12-30T04:34:35.031Z,14.90
2018-12-30T04:37:03.884Z,10.77
2018-12-30T04:39:32.719Z,14.10
2018-12-30T04:42:01.568Z,4.50
2018-12-30T04:44:30.484Z,7.37
2018-12-30T04:46:59.330Z,6.40
2018-12-30T04:49:28.165Z,10.03
2018-12-30T04:51:56.986Z,10.30
2018-12-30T04:54:25.818Z,4.40
2018-12-30T04:56:54.641Z,7.43
2018-12-30T04:59:23.472Z,7.33
2018-12-30T05:01:52.282Z,5.67
2018-12-30T05:04:21.110Z,4.63
2018-12-30T05:06:50.021Z,11.53
2018-12-30T05:09:18.842Z,9.10
2018-12-30T05:14:18.722Z,5.30
2018-12-30T05:16:47.668Z,6.40
2018-12-30T05:19:16.499Z,7.70
2018-12-30T05:21:45.371Z,6.80
2018-12-30T05:24:14.253Z,8.73
2018-12-30T05:26:43.141Z,5.10
2018-12-30T05:29:11.991Z,5.37
2018-12-30T05:31:40.955Z,9.67
2018-12-30T05:34:09.829Z,7.80
2018-12-30T05:36:38.682Z,4.40
2018-12-30T05:39:07.715Z,5.43
2018-12-30T05:41:36.660Z,6.80
2018-12-30T05:44:05.497Z,6.80
2018-12-30T05:46:34.403Z,6.00
2018-12-30T05:49:03.247Z,6.20
2018-12-30T05:51:32.056Z,3.70
2018-12-30T05:54:01.033Z,8.53
2018-12-30T05:56:29.868Z,13.27
2018-12-30T05:58:58.766Z,2.40
2018-12-30T06:01:27.592Z,5.30
2018-12-30T06:03:56.550Z,8.10
2018-12-30T06:06:25.436Z,6.63
2018-12-30T06:08:54.331Z,8.03
2018-12-30T06:11:23.424Z,5.80
2018-12-30T06:13:52.302Z,9.43
2018-12-30T06:16:21.132Z,8.93
2018-12-30T06:18:49.950Z,7.13
2018-12-30T06:21:18.769Z,9.80
2018-12-30T06:23:47.730Z,5.30
2018-12-30T06:26:16.594Z,4.20
2018-12-30T06:28:45.603Z,9.23
2018-12-30T06:31:14.372Z,6.53
2018-12-30T06:33:43.275Z,7.10
2018-12-30T06:36:12.271Z,8.83
2018-12-30T06:38:41.063Z,6.73
2018-12-30T06:41:10.038Z,10.20
2018-12-30T06:43:38.914Z,10.00
2018-12-30T06:46:07.719Z,5.77
2018-12-30T06:48:36.567Z,6.60
2018-12-30T06:51:05.450Z,10.33
2018-12-30T06:53:34.299Z,4.50
2018-12-30T06:56:03.267Z,6.93
2018-12-30T06:58:32.155Z,10.30
2018-12-30T07:01:01.135Z,12.27
2018-12-30T07:03:29.991Z,4.20
2018-12-30T07:06:04.273Z,6.87
2018-12-30T07:08:33.091Z,8.27
2018-12-30T07:11:01.954Z,10.30
2018-12-30T07:13:30.754Z,9.13
2018-12-30T07:15:59.592Z,7.27
2018-12-30T07:18:28.489Z,6.57
2018-12-30T07:20:57.366Z,10.50
2018-12-30T07:23:26.352Z,2.73
2018-12-30T07:25:55.278Z,10.20
2018-12-30T07:28:24.114Z,8.53
2018-12-30T07:30:53.135Z,8.47
2018-12-30T07:33:23.039Z,11.03
2018-12-30T07:35:52.284Z,16.67
2018-12-30T07:38:21.243Z,7.80
2018-12-30T07:40:50.069Z,7.27
2018-12-30T07:43:18.930Z,6.70
2018-12-30T07:45:47.803Z,11.40
2018-12-30T07:48:16.691Z,5.33
2018-12-30T07:50:45.637Z,8.47
2018-12-30T07:53:14.595Z,12.40
2018-12-30T07:55:43.518Z,7.10
2018-12-30T07:58:12.431Z,11.50
2018-12-30T08:00:41.464Z,5.40
2018-12-30T08:03:10.336Z,5.73
2018-12-30T08:05:39.224Z,8.87
2018-12-30T08:08:08.028Z,13.67
2018-12-30T08:10:36.968Z,13.30
2018-12-30T08:13:05.858Z,10.27
2018-12-30T08:15:32.799Z,12.37
2018-12-30T08:18:01.625Z,9.50
2018-12-30T08:20:30.462Z,9.30
2018-12-30T08:22:59.323Z,18.27
2018-12-30T08:25:28.204Z,10.27
2018-12-30T08:27:57.057Z,13.37
2018-12-30T08:30:25.878Z,15.17
2018-12-30T08:32:54.856Z,7.90
2018-12-30T08:35:23.750Z,9.50
2018-12-30T08:37:52.604Z,9.87
2018-12-30T08:40:21.463Z,8.50
2018-12-30T08:42:50.288Z,14.07
2018-12-30T08:45:19.103Z,14.73
2018-12-30T08:47:48.040Z,15.70
2018-12-30T08:50:16.879Z,10.07
2018-12-30T08:52:45.764Z,9.70
2018-12-30T08:55:14.590Z,10.23
2018-12-30T08:57:43.554Z,7.27
2018-12-30T09:02:53.623Z,5.53
2018-12-30T09:05:22.459Z,14.13
2018-12-30T09:07:51.411Z,11.73
2018-12-30T09:10:20.311Z,13.10
2018-12-30T09:12:49.130Z,10.67
2018-12-30T09:15:18.185Z,13.30
2018-12-30T09:17:47.034Z,13.37
2018-12-30T09:20:15.863Z,13.63
2018-12-30T09:22:44.810Z,14.83
2018-12-30T09:25:13.812Z,8.10
2018-12-30T09:27:42.826Z,18.20
2018-12-30T09:30:11.664Z,11.27
2018-12-30T09:32:40.518Z,12.50
2018-12-30T09:35:09.478Z,9.83
2018-12-30T09:37:38.396Z,12.40
2018-12-30T09:40:07.451Z,12.13
2018-12-30T09:42:36.266Z,13.43
2018-12-30T09:45:05.401Z,18.13
2018-12-30T09:47:34.320Z,11.60
2018-12-30T09:50:03.215Z,19.47
2018-12-30T09:52:32.112Z,6.50
2018-12-30T09:55:01.000Z,6.50
2018-12-30T09:57:29.820Z,15.17
2018-12-30T09:59:58.667Z,11.73
2018-12-30T10:02:27.566Z,8.73
2018-12-30T10:04:56.439Z,9.23
2018-12-30T10:07:25.379Z,14.07
2018-12-30T10:09:54.201Z,15.97
2018-12-30T10:12:23.038Z,14.13
2018-12-30T10:14:51.884Z,9.37
2018-12-30T10:17:22.571Z,10.83
2018-12-30T10:19:51.447Z,12.60
2018-12-30T10:22:20.322Z,15.07
2018-12-30T10:24:49.194Z,14.37
2018-12-30T10:27:18.187Z,10.47
2018-12-30T10:29:47.138Z,9.83
2018-12-30T10:32:35.170Z,9.47
2018-12-30T10:35:04.212Z,9.60
2018-12-30T10:37:33.035Z,7.23
2018-12-30T10:40:01.918Z,5.43
2018-12-30T10:42:30.818Z,9.43
2018-12-30T10:44:59.056Z,10.57
2018-12-30T10:47:27.982Z,10.50
2018-12-30T10:49:56.923Z,10.70
2018-12-30T10:52:25.743Z,10.23
2018-12-30T10:54:54.691Z,8.73
2018-12-30T10:57:42.786Z,8.33
2018-12-30T11:00:13.338Z,6.30
2018-12-30T11:02:42.214Z,6.70
2018-12-30T11:05:11.299Z,11.30
2018-12-30T11:07:40.237Z,8.60
2018-12-30T11:10:09.323Z,14.37
2018-12-30T11:12:38.285Z,8.30
2018-12-30T11:15:07.309Z,8.97
2018-12-30T11:17:36.143Z,10.27
2018-12-30T11:20:05.371Z,14.90
2018-12-30T11:22:34.215Z,14.53
2018-12-30T11:25:03.146Z,12.70
2018-12-30T11:27:32.058Z,10.13
2018-12-30T11:30:00.978Z,11.93
2018-12-30T11:32:30.126Z,14.37
2018-12-30T11:35:02.034Z,7.90
2018-12-30T11:37:30.908Z,6.70
2018-12-30T11:39:59.789Z,7.57
2018-12-30T11:42:28.763Z,9.53
2018-12-30T11:44:57.603Z,13.77
2018-12-30T11:47:26.559Z,13.67
2018-12-30T11:49:55.537Z,15.33
2018-12-30T11:52:24.488Z,12.10
2018-12-30T11:54:53.409Z,19.57
2018-12-30T11:57:22.417Z,15.60
2018-12-30T11:59:51.276Z,13.80
2018-12-30T12:02:24.009Z,11.00
2018-12-30T12:04:50.931Z,11.73
2018-12-30T12:07:19.836Z,10.53
2018-12-30T12:09:48.764Z,12.23
2018-12-30T12:12:17.615Z,13.53
2018-12-30T12:14:46.514Z,15.97
2018-12-30T12:17:15.407Z,10.17
2018-12-30T12:19:44.288Z,15.97
2018-12-30T12:22:13.211Z,14.00
2018-12-30T12:24:42.256Z,17.13
2018-12-30T12:27:11.268Z,12.67
2018-12-30T12:29:40.078Z,12.60
2018-12-30T12:32:09.014Z,17.57
2018-12-30T12:34:37.841Z,15.03
2018-12-30T12:37:06.727Z,26.00
2018-12-30T12:39:35.540Z,15.60
2018-12-30T12:42:04.476Z,17.43
2018-12-30T12:44:33.806Z,11.43
2018-12-30T12:47:02.715Z,19.40
2018-12-30T12:49:31.587Z,20.23
2018-12-30T12:52:00.437Z,14.87
2018-12-30T12:54:32.307Z,16.23
2018-12-30T12:56:59.956Z,22.90
2018-12-30T12:59:28.798Z,15.07
2018-12-30T13:01:57.622Z,12.47
2018-12-30T13:04:26.576Z,14.30
2018-12-30T13:06:55.568Z,12.03
2018-12-30T13:09:24.393Z,12.53
2018-12-30T13:11:53.275Z,10.17
2018-12-30T13:14:41.903Z,18.10
2018-12-30T13:17:10.794Z,19.50
2018-12-30T13:19:39.814Z,15.70
2018-12-30T13:22:08.671Z,15.80
2018-12-30T13:24:40.086Z,15.40
2018-12-30T13:27:08.226Z,17.20
2018-12-30T13:29:37.544Z,15.50
2018-12-30T13:32:06.491Z,14.33
2018-12-30T13:34:35.839Z,20.23
2018-12-30T13:37:05.284Z,13.53
2018-12-30T13:39:34.292Z,13.63
2018-12-30T13:42:03.266Z,21.27
2018-12-30T13:44:32.188Z,9.70
2018-12-30T13:47:02.003Z,20.53
2018-12-30T13:49:31.245Z,12.80
2018-12-30T13:52:00.181Z,16.37
2018-12-30T13:54:29.037Z,14.50
2018-12-30T13:56:57.960Z,24.40
2018-12-30T13:59:26.928Z,13.63
2018-12-30T14:01:56.078Z,12.73
2018-12-30T14:04:25.088Z,11.30
2018-12-30T14:06:54.755Z,15.97
2018-12-30T14:09:23.686Z,18.03
2018-12-30T14:11:52.610Z,16.93
2018-12-30T14:14:21.455Z,17.13
2018-12-30T14:16:50.410Z,16.67
2018-12-30T14:19:19.322Z,27.93
2018-12-30T14:21:48.264Z,15.73
2018-12-30T14:24:17.086Z,17.30
2018-12-30T14:26:45.953Z,16.63
2018-12-30T14:29:14.867Z,18.17
2018-12-30T14:31:43.803Z,14.00
2018-12-30T14:34:12.648Z,22.57
2018-12-30T14:36:41.549Z,18.60
2018-12-30T14:39:10.604Z,14.90
2018-12-30T14:41:39.808Z,19.73
2018-12-30T14:44:08.737Z,11.37
2018-12-30T14:46:37.731Z,8.50
2018-12-30T14:49:06.599Z,22.27
2018-12-30T14:51:35.635Z,18.20
2018-12-30T14:54:04.576Z,14.03
2018-12-30T14:56:33.459Z,13.27
2018-12-30T14:59:02.303Z,12.30
2018-12-30T15:01:31.524Z,12.80
2018-12-30T15:04:00.372Z,18.10
2018-12-30T15:06:29.250Z,12.57
2018-12-30T15:08:58.246Z,14.87
2018-12-30T15:11:27.102Z,12.07
2018-12-30T15:13:56.022Z,9.30
2018-12-30T15:16:24.893Z,10.47
2018-12-30T15:18:53.694Z,6.50
2018-12-30T15:21:22.600Z,16.43
2018-12-30T15:23:51.509Z,9.30
2018-12-30T15:26:20.346Z,12.90
2018-12-30T15:28:49.190Z,10.07
2018-12-30T15:31:18.050Z,12.20
2018-12-30T15:33:46.875Z,11.93
2018-12-30T15:36:16.012Z,8.87
2018-12-30T15:38:44.868Z,11.20
2018-12-30T15:41:13.699Z,10.10
2018-12-30T15:43:42.586Z,10.87
2018-12-30T15:46:11.657Z,11.20
2018-12-30T15:48:40.528Z,11.53
2018-12-30T15:51:09.381Z,12.97
2018-12-30T15:53:38.191Z,12.40
2018-12-30T15:56:07.125Z,18.53
2018-12-30T15:58:36.862Z,13.47
2018-12-30T16:01:05.840Z,20.23
2018-12-30T16:03:34.675Z,17.37
2018-12-30T16:06:03.657Z,15.47
2018-12-30T16:08:32.570Z,15.33
2018-12-30T16:11:01.691Z,16.13
2018-12-30T16:13:30.558Z,15.30
2018-12-30T16:15:59.722Z,27.70
2018-12-30T16:18:28.572Z,19.33
2018-12-30T16:20:57.408Z,22.00
2018-12-30T16:23:26.347Z,18.27
2018-12-30T16:25:55.187Z,19.93
2018-12-30T16:28:24.031Z,22.63
2018-12-30T16:30:52.871Z,20.70
2018-12-30T16:33:21.711Z,26.80
2018-12-30T16:35:50.625Z,29.83
2018-12-30T16:38:19.539Z,27.10
2018-12-30T16:40:48.440Z,29.50
2018-12-30T16:43:17.318Z,26.87
2018-12-30T16:45:46.779Z,20.27
2018-12-30T16:48:15.745Z,24.60
2018-12-30T16:50:44.571Z,25.73
2018-12-30T16:53:13.677Z,29.17
2018-12-30T16:55:42.618Z,32.77
2018-12-30T16:58:11.526Z,35.37
2018-12-30T17:00:40.548Z,27.90
2018-12-30T17:03:09.563Z,26.13
2018-12-30T17:05:38.473Z,23.60
2018-12-30T17:08:07.634Z,31.53
2018-12-30T17:10:36.583Z,28.10
2018-12-30T17:13:05.452Z,27.20
2018-12-30T17:15:34.310Z,26.63
2018-12-30T17:18:03.304Z,29.73
2018-12-30T17:20:32.233Z,25.10
2018-12-30T17:23:01.130Z,21.70
2018-12-30T17:25:30.084Z,26.40
2018-12-30T17:27:59.033Z,22.37
2018-12-30T17:30:28.070Z,25.70
2018-12-30T17:32:56.909Z,25.53
2018-12-30T17:35:26.158Z,33.00
2018-12-30T17:37:54.976Z,28.10
2018-12-30T17:40:23.801Z,25.67
2018-12-30T17:42:52.658Z,31.93
2018-12-30T17:45:21.474Z,31.70
2018-12-30T17:47:50.532Z,24.43
2018-12-30T17:50:19.424Z,36.93
2018-12-30T17:52:48.324Z,25.63
2018-12-30T17:55:17.168Z,22.20
2018-12-30T17:57:46.092Z,29.97
2018-12-30T18:00:14.990Z,31.87
2018-12-30T18:02:43.939Z,27.10
2018-12-30T18:05:12.968Z,52.87
2018-12-30T18:07:41.864Z,40.00
2018-12-30T18:10:10.784Z,41.17
2018-12-30T18:12:39.620Z,49.07
2018-12-30T18:15:08.615Z,43.80
2018-12-30T18:17:41.376Z,35.10
2018-12-30T18:20:08.178Z,40.90
2018-12-30T18:22:37.020Z,43.83
2018-12-30T18:25:06.394Z,31.20
2018-12-30T18:27:35.226Z,39.00
2018-12-30T18:30:05.309Z,28.63
2018-12-30T18:32:34.302Z,32.37
2018-12-30T18:35:03.124Z,31.70
2018-12-30T18:37:32.043Z,41.33
2018-12-30T18:40:00.864Z,48.67
2018-12-30T18:42:29.702Z,35.23
2018-12-30T18:44:58.541Z,36.07
2018-12-30T18:47:27.364Z,48.43
2018-12-30T18:49:56.194Z,30.90
2018-12-30T18:52:25.095Z,31.33
2018-12-30T18:54:54.024Z,32.70
2018-12-30T18:57:23.015Z,35.60
2018-12-30T18:59:51.844Z,34.27
2018-12-30T19:02:20.715Z,30.60
2018-12-30T19:04:49.796Z,30.43
2018-12-30T19:07:18.646Z,37.70
2018-12-30T19:09:47.578Z,31.10
2018-12-30T19:12:16.619Z,37.87
2018-12-30T19:14:45.500Z,29.87
2018-12-30T19:17:14.430Z,28.90
2018-12-30T19:19:43.426Z,37.93
2018-12-30T19:22:12.373Z,33.27
2018-12-30T19:24:41.349Z,27.90
2018-12-30T19:27:10.422Z,34.97
2018-12-30T19:29:39.276Z,33.00
2018-12-30T19:32:08.182Z,34.20
2018-12-30T19:34:37.049Z,31.03
2018-12-30T19:37:06.079Z,27.60
2018-12-30T19:39:35.061Z,29.17
2018-12-30T19:42:07.605Z,33.57
2018-12-30T19:44:36.439Z,34.87
2018-12-30T19:47:05.364Z,32.30
2018-12-30T19:49:34.430Z,30.50
2018-12-30T19:52:03.262Z,30.73
2018-12-30T19:54:32.214Z,25.30
2018-12-30T19:57:01.203Z,26.23
2018-12-30T19:59:30.091Z,28.87
2018-12-30T20:01:58.951Z,30.33
2018-12-30T20:04:27.936Z,30.00
2018-12-30T20:06:56.843Z,30.67
2018-12-30T20:09:25.773Z,35.13
2018-12-30T20:11:54.661Z,35.30
2018-12-30T20:14:23.600Z,30.93
2018-12-30T20:16:52.458Z,31.50
2018-12-30T20:19:21.436Z,30.27
2018-12-30T20:21:50.340Z,31.90
2018-12-30T20:24:19.214Z,30.80
2018-12-30T20:26:48.232Z,31.33
2018-12-30T20:29:17.188Z,29.90
2018-12-30T20:31:46.091Z,34.30
2018-12-30T20:34:15.003Z,26.80
2018-12-30T20:36:44.790Z,23.40
2018-12-30T20:39:13.798Z,25.37
2018-12-30T20:41:42.734Z,26.53
2018-12-30T20:44:11.596Z,36.90
2018-12-30T20:46:40.435Z,26.60
2018-12-30T20:49:09.306Z,26.10
2018-12-30T20:51:38.195Z,22.57
2018-12-30T20:54:07.106Z,23.50
2018-12-30T20:56:37.774Z,23.70
2018-12-30T20:59:06.558Z,21.63
2018-12-30T21:01:35.616Z,25.10
2018-12-30T21:04:04.549Z,21.30
2018-12-30T21:06:33.566Z,28.17
2018-12-30T21:09:02.604Z,23.57
2018-12-30T21:11:31.571Z,26.70
2018-12-30T21:14:00.412Z,23.53
2018-12-30T21:16:29.312Z,25.07
2018-12-30T21:18:58.248Z,22.47
2018-12-30T21:21:27.110Z,24.87
2018-12-30T21:23:56.070Z,22.80
2018-12-30T21:26:25.103Z,23.40
2018-12-30T21:28:54.026Z,29.37
2018-12-30T21:31:22.871Z,18.50
2018-12-30T21:33:51.807Z,17.30
2018-12-30T21:36:20.747Z,21.30
2018-12-30T21:38:49.580Z,20.53
2018-12-30T21:41:18.426Z,19.70
2018-12-30T21:43:47.353Z,21.83
2018-12-30T21:46:16.400Z,22.27
2018-12-30T21:48:45.235Z,17.70
2018-12-30T21:51:14.147Z,18.43
2018-12-30T21:53:43.116Z,17.40
2018-12-30T21:56:11.938Z,20.00
2018-12-30T21:58:40.792Z,20.00
2018-12-30T22:01:09.694Z,20.30
2018-12-30T22:03:38.607Z,17.30
2018-12-30T22:06:07.466Z,16.90
2018-12-30T22:08:36.482Z,13.90
2018-12-30T22:11:05.455Z,16.87
2018-12-30T22:13:34.347Z,19.83
2018-12-30T22:16:03.329Z,16.13
2018-12-30T22:18:32.445Z,16.07
2018-12-30T22:21:01.431Z,17.30
2018-12-30T22:23:30.317Z,15.80
2018-12-30T22:25:59.184Z,19.00
2018-12-30T22:28:28.044Z,17.90
2018-12-30T22:30:56.905Z,15.80
2018-12-30T22:33:25.746Z,17.67
2018-12-30T22:35:54.602Z,20.23
2018-12-30T22:38:23.793Z,17.60
2018-12-30T22:40:52.678Z,18.60
2018-12-30T22:43:21.555Z,24.40
2018-12-30T22:45:50.411Z,18.87
2018-12-30T22:48:19.277Z,22.33
2018-12-30T22:50:48.094Z,18.00
2018-12-30T22:53:36.255Z,18.23
2018-12-30T22:56:05.428Z,21.50
2018-12-30T22:58:34.428Z,18.07
2018-12-30T23:01:07.040Z,21.27
2018-12-30T23:03:35.946Z,19.30
2018-12-30T23:06:04.822Z,21.07
2018-12-30T23:08:33.697Z,23.87
2018-12-30T23:11:02.582Z,21.40
2018-12-30T23:13:31.420Z,21.07
2018-12-30T23:16:00.380Z,19.90
2018-12-30T23:18:29.223Z,21.47
2018-12-30T23:20:58.034Z,21.93
2018-12-30T23:23:26.895Z,18.90
2018-12-30T23:25:55.699Z,18.80
2018-12-30T23:28:24.506Z,20.53
2018-12-30T23:30:53.343Z,21.43
2018-12-30T23:33:22.183Z,20.60
2018-12-30T23:35:51.007Z,19.97
2018-12-30T23:38:20.063Z,18.27
2018-12-30T23:40:48.882Z,20.57
2018-12-30T23:43:17.720Z,21.87
2018-12-30T23:45:46.559Z,19.80
2018-12-30T23:48:15.385Z,20.03
2018-12-30T23:50:44.308Z,19.83
2018-12-30T23:53:13.186Z,19.50
2018-12-30T23:55:42.088Z,20.70
2018-12-30T23:58:10.935Z,26.10
